createdAt,value
2018-11-25T00:02:47.406Z,69.68
2018-11-25T00:07:50.767Z,69.63
2018-11-25T00:12:54.231Z,69.93
2018-11-25T00:17:57.722Z,70.13
2018-11-25T00:23:01.123Z,69.39
2018-11-25T00:28:04.648Z,69.01
2018-11-25T00:33:07.984Z,67.97
2018-11-25T00:38:11.358Z,68.37
2018-11-25T00:43:14.686Z,68.76
2018-11-25T00:48:18.387Z,68.57
2018-11-25T00:53:21.752Z,68.79
2018-11-25T00:58:25.096Z,68.99
2018-11-25T01:03:28.452Z,68.36
2018-11-25T01:08:31.879Z,69.78
2018-11-25T01:13:35.204Z,70.44
2018-11-25T01:18:38.552Z,71.19
2018-11-25T01:23:42.018Z,72.12
2018-11-25T01:28:45.390Z,72.75
2018-11-25T01:33:48.767Z,73.77
2018-11-25T01:38:52.146Z,74.29
2018-11-25T01:43:55.587Z,74.46
2018-11-25T01:48:58.900Z,74.55
2018-11-25T01:54:02.229Z,74.83
2018-11-25T01:59:05.750Z,74.76
2018-11-25T02:04:09.113Z,74.69
2018-11-25T02:09:12.628Z,74.61
2018-11-25T02:14:16.016Z,74.26
2018-11-25T02:19:19.462Z,74.28
2018-11-25T02:24:22.897Z,74.30
2018-11-25T02:29:26.413Z,74.02
2018-11-25T02:34:29.749Z,74.04
2018-11-25T02:39:33.252Z,74.07
2018-11-25T02:44:36.845Z,73.48
2018-11-25T02:49:40.219Z,73.61
2018-11-25T02:54:43.592Z,73.46
2018-11-25T02:59:46.996Z,73.61
2018-11-25T03:04:50.335Z,73.74
2018-11-25T03:09:53.688Z,73.42
2018-11-25T03:14:57.230Z,73.72
2018-11-25T03:20:00.582Z,74.06
2018-11-25T03:25:03.996Z,74.45
2018-11-25T03:30:10.188Z,74.92
2018-11-25T03:35:14.071Z,75.41
2018-11-25T03:40:19.857Z,75.39
2018-11-25T03:45:23.352Z,75.62
2018-11-25T03:50:26.700Z,76.11
2018-11-25T03:55:30.216Z,76.30
2018-11-25T04:00:33.595Z,76.17
2018-11-25T04:05:36.980Z,76.49
2018-11-25T04:10:40.395Z,76.57
2018-11-25T04:15:43.759Z,76.36
2018-11-25T04:20:47.167Z,76.32
2018-11-25T04:25:50.525Z,76.45
2018-11-25T04:30:53.915Z,76.86
2018-11-25T04:35:57.491Z,76.86
2018-11-25T04:41:00.829Z,76.46
2018-11-25T04:46:04.160Z,76.66
2018-11-25T04:51:07.607Z,76.94
2018-11-25T04:56:10.925Z,76.35
2018-11-25T05:01:14.410Z,76.35
2018-11-25T05:06:17.841Z,75.98
2018-11-25T05:11:21.216Z,75.91
2018-11-25T05:16:24.547Z,75.96
2018-11-25T05:21:27.872Z,75.65
2018-11-25T05:26:31.349Z,75.59
2018-11-25T05:31:34.680Z,75.63
2018-11-25T05:36:38.072Z,75.62
2018-11-25T05:41:41.475Z,75.63
2018-11-25T05:46:44.835Z,75.65
2018-11-25T05:51:48.212Z,75.46
2018-11-25T05:56:51.537Z,76.18
2018-11-25T06:01:55.208Z,75.90
2018-11-25T06:06:58.764Z,75.95
2018-11-25T06:12:02.376Z,75.97
2018-11-25T06:17:06.258Z,75.64
2018-11-25T06:22:09.821Z,75.71
2018-11-25T06:27:13.388Z,75.91
2018-11-25T06:32:17.008Z,75.88
2018-11-25T06:37:20.589Z,76.12
2018-11-25T06:42:24.168Z,75.50
2018-11-25T06:47:27.717Z,74.89
2018-11-25T06:52:31.442Z,74.05
2018-11-25T06:57:34.993Z,73.59
2018-11-25T07:02:38.600Z,74.05
2018-11-25T07:07:42.013Z,73.99
2018-11-25T07:12:45.545Z,74.56
2018-11-25T07:17:49.227Z,74.92
2018-11-25T07:22:54.126Z,74.80
2018-11-25T07:27:56.475Z,74.86
2018-11-25T07:33:00.239Z,74.33
2018-11-25T07:38:03.907Z,73.88
2018-11-25T07:43:07.432Z,74.22
2018-11-25T07:48:11.097Z,74.11
2018-11-25T07:53:14.521Z,73.58
2018-11-25T07:58:18.164Z,74.05
2018-11-25T08:03:21.776Z,74.28
2018-11-25T08:08:25.394Z,75.11
2018-11-25T08:13:28.984Z,76.00
2018-11-25T08:18:32.546Z,75.93
2018-11-25T08:23:36.696Z,76.00
2018-11-25T08:28:40.521Z,76.24
2018-11-25T08:33:44.120Z,75.94
2018-11-25T08:38:47.777Z,75.66
2018-11-25T08:43:51.561Z,75.14
2018-11-25T08:48:55.866Z,74.30
2018-11-25T08:53:59.356Z,75.10
2018-11-25T08:59:05.289Z,74.14
2018-11-25T09:04:08.937Z,73.16
2018-11-25T09:09:18.689Z,72.90
2018-11-25T09:14:22.659Z,73.48
2018-11-25T09:19:26.681Z,73.39
2018-11-25T09:24:30.517Z,72.51
2018-11-25T09:29:34.121Z,73.40
2018-11-25T09:34:37.645Z,72.69
2018-11-25T09:39:41.149Z,73.77
2018-11-25T09:44:44.671Z,72.98
2018-11-25T09:49:48.169Z,73.53
2018-11-25T09:54:51.535Z,73.23
2018-11-25T09:59:55.015Z,72.57
2018-11-25T10:04:59.574Z,72.87
2018-11-25T10:10:04.530Z,70.94
2018-11-25T10:15:09.443Z,69.79
2018-11-25T10:20:18.815Z,71.87
2018-11-25T10:25:22.241Z,73.07
2018-11-25T10:30:26.480Z,72.26
2018-11-25T10:35:29.828Z,71.23
2018-11-25T10:40:33.642Z,70.37
2018-11-25T10:45:37.140Z,69.93
2018-11-25T10:50:40.651Z,68.01
2018-11-25T10:55:44.375Z,68.24
2018-11-25T11:00:53.005Z,66.87
2018-11-25T11:06:01.849Z,65.48
2018-11-25T11:11:05.973Z,66.55
2018-11-25T11:16:09.604Z,64.12
2018-11-25T11:21:13.276Z,56.41
2018-11-25T11:26:26.743Z,54.70
2018-11-25T11:31:30.989Z,53.09
2018-11-25T11:36:34.753Z,51.44
2018-11-25T11:41:39.185Z,51.19
2018-11-25T11:46:42.864Z,52.93
2018-11-25T11:51:46.516Z,55.51
2018-11-25T11:56:50.904Z,57.01
2018-11-25T12:01:54.447Z,55.96
2018-11-25T12:06:59.215Z,57.58
2018-11-25T12:12:02.751Z,58.53
2018-11-25T12:17:06.587Z,60.45
2018-11-25T12:22:10.278Z,62.26
2018-11-25T12:27:14.080Z,63.50
2018-11-25T12:32:17.962Z,63.92
2018-11-25T12:37:21.719Z,64.92
2018-11-25T12:42:25.713Z,65.30
2018-11-25T12:47:29.845Z,65.69
2018-11-25T12:52:33.554Z,65.65
2018-11-25T12:57:37.189Z,65.33
2018-11-25T13:02:40.844Z,64.80
2018-11-25T13:07:44.609Z,64.86
2018-11-25T13:12:48.570Z,65.62
2018-11-25T13:17:52.051Z,66.61
2018-11-25T13:22:55.775Z,66.92
2018-11-25T13:27:59.873Z,67.11
2018-11-25T13:33:04.118Z,67.37
2018-11-25T13:38:07.968Z,67.20
2018-11-25T13:43:11.588Z,67.37
2018-11-25T13:48:15.292Z,67.55
2018-11-25T13:53:18.943Z,67.57
2018-11-25T13:58:22.429Z,67.85
2018-11-25T14:03:29.032Z,68.40
2018-11-25T14:08:32.777Z,67.82
2018-11-25T14:13:36.571Z,67.23
2018-11-25T14:18:40.259Z,67.90
2018-11-25T14:23:43.976Z,68.16
2018-11-25T14:28:48.128Z,67.48
2018-11-25T14:33:51.747Z,67.87
2018-11-25T14:38:58.206Z,67.86
2018-11-25T14:44:01.753Z,68.45
2018-11-25T14:49:05.529Z,68.43
2018-11-25T14:54:09.318Z,68.47
2018-11-25T14:59:12.952Z,69.17
2018-11-25T15:04:16.455Z,68.80
2018-11-25T15:09:21.097Z,68.80
2018-11-25T15:14:24.496Z,69.18
2018-11-25T15:19:28.928Z,68.09
2018-11-25T15:24:32.672Z,66.16
2018-11-25T15:29:36.214Z,65.47
2018-11-25T15:34:39.831Z,65.84
2018-11-25T15:39:43.203Z,66.76
2018-11-25T15:44:46.980Z,66.83
2018-11-25T15:49:50.601Z,67.17
2018-11-25T15:54:54.303Z,68.73
2018-11-25T15:59:57.809Z,69.46
2018-11-25T16:05:01.343Z,69.90
2018-11-25T16:10:08.773Z,70.50
2018-11-25T16:15:13.753Z,71.52
2018-11-25T16:20:18.455Z,71.79
2018-11-25T16:25:24.865Z,71.76
2018-11-25T16:30:28.204Z,72.14
2018-11-25T16:35:31.613Z,72.48
2018-11-25T16:40:35.064Z,72.41
2018-11-25T16:45:38.833Z,72.13
2018-11-25T16:50:42.173Z,72.65
2018-11-25T16:55:45.977Z,72.44
2018-11-25T17:00:49.484Z,72.82
2018-11-25T17:05:53.618Z,72.93
2018-11-25T17:10:57.434Z,72.50
2018-11-25T17:16:01.023Z,71.10
2018-11-25T17:21:04.574Z,71.79
2018-11-25T17:26:08.245Z,70.92
2018-11-25T17:31:11.765Z,71.26
2018-11-25T17:36:15.365Z,70.28
2018-11-25T17:41:19.002Z,70.52
2018-11-25T17:46:22.741Z,70.80
2018-11-25T17:51:26.455Z,70.91
2018-11-25T17:56:30.171Z,71.90
2018-11-25T18:01:33.748Z,72.59
2018-11-25T18:06:37.511Z,73.18
2018-11-25T18:11:41.245Z,73.69
2018-11-25T18:16:44.835Z,73.68
2018-11-25T18:21:49.886Z,73.12
2018-11-25T18:26:53.641Z,73.71
2018-11-25T18:31:57.264Z,73.35
2018-11-25T18:37:00.934Z,73.52
2018-11-25T18:42:05.101Z,74.68
2018-11-25T18:47:08.849Z,75.00
2018-11-25T18:52:12.575Z,75.52
2018-11-25T18:57:16.128Z,75.33
2018-11-25T19:02:23.478Z,74.92
2018-11-25T19:07:33.802Z,75.39
2018-11-25T19:12:44.259Z,74.89
2018-11-25T19:17:59.308Z,74.77
2018-11-25T19:23:06.081Z,74.90
2018-11-25T19:28:14.253Z,74.69
2018-11-25T19:33:18.101Z,74.74
2018-11-25T19:38:23.614Z,74.57
2018-11-25T19:43:27.606Z,74.08
2018-11-25T19:48:31.888Z,73.95
2018-11-25T19:53:35.724Z,73.92
2018-11-25T19:58:39.641Z,74.01
2018-11-25T20:03:43.420Z,74.06
2018-11-25T20:08:47.339Z,74.14
2018-11-25T20:13:51.268Z,74.34
2018-11-25T20:18:55.894Z,74.30
2018-11-25T20:23:59.737Z,74.46
2018-11-25T20:29:03.332Z,75.12
2018-11-25T20:34:07.070Z,74.54
2018-11-25T20:39:16.270Z,74.16
2018-11-25T20:44:19.906Z,74.81
2018-11-25T20:49:24.028Z,74.99
2018-11-25T20:54:27.780Z,74.94
2018-11-25T20:59:31.763Z,75.11
2018-11-25T21:04:35.353Z,74.88
2018-11-25T21:09:39.008Z,75.25
2018-11-25T21:14:42.671Z,75.16
2018-11-25T21:19:46.900Z,74.87
2018-11-25T21:24:50.624Z,75.23
2018-11-25T21:29:55.589Z,74.60
2018-11-25T21:35:02.072Z,75.27
2018-11-25T21:40:11.670Z,75.51
2018-11-25T21:45:18.157Z,75.39
2018-11-25T21:50:37.445Z,76.04
2018-11-25T21:56:01.590Z,76.69
2018-11-25T22:01:33.790Z,76.31
2018-11-25T22:07:03.171Z,76.30
2018-11-25T22:12:11.642Z,76.37
2018-11-25T22:17:15.453Z,75.81
2018-11-25T22:22:20.777Z,76.34
2018-11-25T22:27:25.770Z,76.06
2018-11-25T22:32:29.678Z,76.81
2018-11-25T22:37:38.020Z,76.66
2018-11-25T22:42:47.554Z,77.05
2018-11-25T22:47:53.397Z,76.26
2018-11-25T22:52:57.399Z,75.66
2018-11-25T22:58:01.749Z,75.34
2018-11-25T23:03:06.622Z,75.87
2018-11-25T23:08:10.379Z,75.99
2018-11-25T23:13:13.966Z,76.19
2018-11-25T23:18:17.468Z,75.53
2018-11-25T23:23:21.024Z,75.34
2018-11-25T23:28:24.524Z,75.29
2018-11-25T23:33:28.146Z,75.01
2018-11-25T23:38:31.862Z,75.35
2018-11-25T23:43:35.567Z,75.02
2018-11-25T23:48:39.192Z,75.05
2018-11-25T23:53:42.829Z,74.61
2018-11-25T23:58:46.454Z,74.93
